Skip Navigation Links
NOAA logo - Click to go to the NOAA homepage
NOAA's National Weather Service
Alaska Aviation Weather Unit
  NWS logo - Click to go to the NWS homepage
Left Navbar Graphic     02 AKDT = 10 GMT

   
NOAA is celebrating 200 years of science, service, and stewardship. Visit the NOAA 200th celebration Web site to learn more.
USA.gov is the U.S. Government's official Web portal to all Federal, state and local government Web resources and services.
Facebook
NWS on Facebook

AAWU Home :: Display TAF Add Bookmark
METAR PAOU 270456Z AUTO 03018KT 10SM CLR M02/M04 A2943 RMK AO2 SLP967
     T10221044 FZRANO=

METAR PAOU 270556Z AUTO 03015KT 10SM CLR M02/M04 A2943 RMK AO2 SLP966
     T10221039 11017 21022 56009 FZRANO=

METAR PAOU 270656Z AUTO 03018KT 10SM CLR M02/M04 A2943 RMK AO2
 SLP965 T10171039 FZRANO=

METAR PAOU 270756Z AUTO 04017KT 10SM CLR M02/M04 A2943 RMK AO2 SLP967
     T10221039 410111050 FZRANO=

METAR PAOU 270856Z AUTO 04018G25KT 10SM CLR M02/M04 A2943 RMK AO2 PK WND
     03027/0841 SLP965 T10221044 58001 FZRANO=

METAR PAOU 270956Z AUTO 03022KT 10SM CLR M02/M04 A2941 RMK AO2 SLP960
     T10221044 FZRANO=


NOAA's National Weather Service
Alaska Aviation Weather Unit
6930 Sand Lake Road
Anchorage, AK 99502-1845
Disclaimer
Credits
Glossary
Privacy Policy
About Us
Career Opportunities
Contact AAWU Internet Services Site last modified: April, 17th 2012